Columbus Metropolitan Airport
KCSG : now visible

Airfield :











YOU CAN JOIN US ON...

 
LOGIN :

Register | Disclaimer

   EN    FR    IT 

 









Legend :    VFR   Marginal VFR   IFR   Intensive IFR   Very Intensive IFR
Visi :
Ceiling :
>= 8 km
>= 3000ft
5 to 8 km
1000 to 3000 ft
1500m to 5 km
500 to 1000 ft
800 to 1500m
200 to 500 ft
< 800m
< 200 ft
Symbols :   Thunderstorms  Fog  Heavy snow  Heavy precipitations  Wind > 20 kt






- Airport Elevation : 397 ft
- IATA code : CSG


KCSG - Columbus Metropolitan

CURRENT METAR :
  • 030751Z AUTO 25003KT 10SM CLR 24/22 A3003 RMK AO2 SLP164 T02390222

EXPIRED METARs :
  • 030651Z AUTO 25003KT 10SM CLR 24/22 A3003 RMK AO2 SLP163 T02440222
  • 030551Z AUTO 00000KT 10SM CLR 25/22 A3004 RMK AO2 SLP165 T02500222 10278 20244 58006
  • 030451Z AUTO 27004KT 10SM CLR 26/22 A3004 RMK AO2 SLP167 T02560222 403390228

TAF KCSG
Valid from the 03 at 06:00 until the 04 at 06:00 UTC


030545Z 0306/0406 27004KT P6SM FEW100 SCT250
FM031500 30005KT P6SM SCT025 SCT035
FM031700 28006KT P6SM VCSH SCT040
PROB30 0317/0323 3SM TSRA BR BKN030CB
FM040200 VRB03KT P6SM SCT250
KZTL FIR / North America



MET'MAP, your aeronautical weather chart ! - Copyright ORBIFLY December 2007 - Disclaimer

ORBIFLY MET'MAP TEAM :

Programming & Development : Alexandra Zaïnal
Original concept : Baudouin d'Aumeries
Technical & hardware support : Manuel Goepfert
Assistance : Marc-Olivier Méhu




SOURCES & CREDITS :

   NOAA       Earth
Advisory